Klamath Falls, OR

7:53 PM PDT on July 27, 2015 (GMT -0700)
Klamath Falls City Schools | | Change Station
CLOSE
Current Station
Personal Weather Station
Location: Klamath Falls, OR
Elevation: 4104 ft
Nearby Weather Stations

Elev 4104 ft 42.22 °N, 121.75 °W | Updated 6 seconds ago

Clear
Clear
70.0 °F
Feels Like 70.0 °F
N
2.0
Wind Variable Wind from West
Gusts 15.0 mph

Today
High -- | Low -- °F
--% Chance of Precip.
Yesterday
High -- | Low -- °F
Precip. -- in
5:54 AM 8:31 PM
Waxing Gibbous, 86% visible
Pressure 30.07 in
Visibility 10.0 miles
Clouds Clear
Dew Point 42 °F
Humidity 37%
Rainfall 0.00 in
Snow Depth Not available.
UV 1 out of 12
Pollen 4.50 out of 12
Air Quality Not available.
Flu Activity Not available.
METAR KLMT 280153Z 33011KT 10SM CLR 23/01 A3015 RMK AO2 SLP182 T02280006

More Conditions Fewer Conditions

Pressure 30.07 in
Visibility 10.0 miles
Clouds Clear
Dew Point 42 °F
Humidity 37%
Rainfall 0.00 in
Snow Depth Not available.
UV 1 out of 12
Pollen 4.50 out of 12
Air Quality Not available.
Flu Activity Not available.
METAR KLMT 280153Z 33011KT 10SM CLR 23/01 A3015 RMK AO2 SLP182 T02280006

More Conditions Fewer Conditions

10-Day Weather Forecast

×

Almanac

Astronomy

Jul. 27, 2015 Rise Set
Actual Time
Civil Twilight
Nautical Twilight
Astronomical Twilight
Moon
Length of Visible Light
Length of Day
Tomorrow will be .
, % of the Moon is Illuminated

Today's Extremes

State Highs State Lows

Community

WunderPhotos

Upload Photos

1,841,777 photos uploaded!

WunderBlogs® & News

Nearby

Air Quality

  Air Quality AQ Index Pollutant
Not available.

Snow Depth

Station Depth Elevation

Earthquake Activity

City Distance Mag. Time & Date
Minimum magnitude displayed is 2.5.

Coastal Water Temperatures

Place Temperature

Stations

Nearby Weather Stations

Station Location Temp. Windchill Dew Point Humidity Wind Precip. Elev Updated Type